Time;durP1;ratioP1;P1;durP2;ratioP2;P2;SDS_P1;SDS_P2;PMS_P1;PMS_P2;Temp;Humidity;BMP_temperature;BMP_pressure;BME280_temperature;BME280_humidity;BME280_pressure;Samples;Min_cycle;Max_cycle;Signal;HPM_P1;HPM_P2
2022/09/16 00:00:19;;;;;;;2.58;1.33;;;;;;;;;;10047373;28;20080;-59
2022/09/16 00:05:12;;;;;;;4.70;1.65;;;;;;;;;;10070139;28;20112;-60
2022/09/16 00:10:07;;;;;;;2.55;1.30;;;;;;;;;;10067313;28;20072;-59
2022/09/16 00:15:00;;;;;;;6.72;2.33;;;;;;;;;;10048807;28;20132;-59
2022/09/16 00:19:53;;;;;;;8.85;2.13;;;;;;;;;;10071786;28;20060;-59
2022/09/16 00:24:48;;;;;;;4.15;1.40;;;;;;;;;;10053663;28;20084;-59
2022/09/16 00:29:42;;;;;;;5.88;1.48;;;;;;;;;;10051284;28;20057;-59
2022/09/16 00:34:35;;;;;;;3.10;1.55;;;;;;;;;;10048516;28;20052;-59
2022/09/16 00:39:30;;;;;;;2.53;1.52;;;;;;;;;;10052144;28;20520;-59
2022/09/16 00:45:26;;;;;;;2.50;1.83;;;;;;;;;;10058913;28;20041;-59
2022/09/16 00:50:37;;;;;;;5.75;1.60;;;;;;;;;;10070919;28;20519;-60
2022/09/16 00:55:34;;;;;;;2.00;1.48;;;;;;;;;;10063773;28;20046;-59
2022/09/16 01:00:30;;;;;;;3.90;1.50;;;;;;;;;;10057592;28;20049;-58
2022/09/16 01:05:25;;;;;;;3.58;1.77;;;;;;;;;;10047866;28;20304;-59
2022/09/16 01:10:41;;;;;;;3.53;2.05;;;;;;;;;;10031928;28;20362;-58
2022/09/16 01:15:50;;;;;;;2.53;1.40;;;;;;;;;;10061264;28;20053;-59
2022/09/16 01:21:03;;;;;;;2.22;1.45;;;;;;;;;;10045283;28;20054;-58
2022/09/16 01:26:27;;;;;;;7.35;1.48;;;;;;;;;;10064132;28;20073;-59
2022/09/16 01:31:55;;;;;;;3.35;1.55;;;;;;;;;;10056489;28;20060;-59
2022/09/16 01:37:04;;;;;;;5.18;1.70;;;;;;;;;;10016884;28;20041;-60
2022/09/16 01:42:03;;;;;;;19.08;3.95;;;;;;;;;;10039116;28;20373;-59
2022/09/16 01:47:26;;;;;;;8.50;3.03;;;;;;;;;;10039272;28;20052;-59
2022/09/16 01:52:40;;;;;;;4.63;1.60;;;;;;;;;;10054473;28;20466;-59
2022/09/16 01:57:42;;;;;;;5.00;1.75;;;;;;;;;;10035393;28;20053;-59
2022/09/16 02:02:50;;;;;;;3.75;1.75;;;;;;;;;;10045656;28;20122;-59
2022/09/16 02:07:49;;;;;;;5.13;1.90;;;;;;;;;;10041292;28;20064;-59
2022/09/16 02:12:44;;;;;;;5.30;1.83;;;;;;;;;;10050067;28;20041;-59
2022/09/16 02:17:43;;;;;;;6.85;2.00;;;;;;;;;;10052009;28;20406;-59
2022/09/16 02:22:41;;;;;;;6.18;2.00;;;;;;;;;;10047301;28;20049;-59
2022/09/16 02:27:35;;;;;;;2.38;1.75;;;;;;;;;;10030440;28;20050;-59
2022/09/16 02:32:30;;;;;;;4.90;1.95;;;;;;;;;;10014393;28;20054;-59
2022/09/16 02:37:28;;;;;;;4.88;2.08;;;;;;;;;;10031792;28;20056;-60
2022/09/16 02:42:22;;;;;;;3.37;1.70;;;;;;;;;;10022192;28;20050;-59
2022/09/16 02:47:47;;;;;;;8.98;1.70;;;;;;;;;;10056182;28;20509;-59
2022/09/16 02:53:00;;;;;;;9.00;2.28;;;;;;;;;;10045887;28;20041;-59
2022/09/16 02:57:54;;;;;;;3.08;1.90;;;;;;;;;;10053775;28;20141;-59
2022/09/16 03:02:49;;;;;;;4.82;1.65;;;;;;;;;;10017834;28;20058;-58
2022/09/16 03:07:43;;;;;;;4.10;1.85;;;;;;;;;;10051868;28;20049;-59
2022/09/16 03:12:39;;;;;;;4.85;2.03;;;;;;;;;;10051732;28;20049;-59
2022/09/16 03:17:48;;;;;;;3.58;2.35;;;;;;;;;;10060962;28;20053;-59
2022/09/16 03:22:41;;;;;;;;;;;;;;;;;;10047399;28;20081;-59
2022/09/16 03:28:05;;;;;;;3.28;1.73;;;;;;;;;;10044931;28;20028;-58
2022/09/16 03:33:10;;;;;;;4.70;2.35;;;;;;;;;;10014261;28;20054;-59
2022/09/16 03:38:11;;;;;;;4.80;2.25;;;;;;;;;;10000107;28;20438;-59
2022/09/16 03:43:12;;;;;;;4.43;2.42;;;;;;;;;;9982350;28;20146;-59
2022/09/16 03:48:06;;;;;;;7.60;2.97;;;;;;;;;;9995223;28;20417;-59
2022/09/16 03:53:00;;;;;;;3.53;2.40;;;;;;;;;;10004676;28;20076;-59
2022/09/16 03:57:54;;;;;;;5.80;2.72;;;;;;;;;;10000433;28;20054;-59
2022/09/16 04:02:48;;;;;;;5.50;2.33;;;;;;;;;;10016089;28;20433;-59
2022/09/16 04:07:42;;;;;;;6.07;2.55;;;;;;;;;;10004289;28;20054;-59
2022/09/16 04:12:36;;;;;;;3.45;1.95;;;;;;;;;;10000371;28;20054;-59
2022/09/16 04:17:34;;;;;;;5.57;2.22;;;;;;;;;;10002290;28;20054;-59
2022/09/16 04:22:31;;;;;;;4.72;2.30;;;;;;;;;;10011955;28;20050;-59
2022/09/16 04:27:26;;;;;;;4.95;1.85;;;;;;;;;;9988802;28;20049;-59
2022/09/16 04:32:23;;;;;;;5.38;2.03;;;;;;;;;;10027544;28;20489;-59
2022/09/16 04:37:16;;;;;;;4.88;2.15;;;;;;;;;;10038226;28;20088;-59
2022/09/16 04:42:11;;;;;;;7.32;3.08;;;;;;;;;;10037620;28;20052;-59
2022/09/16 04:47:05;;;;;;;3.90;2.05;;;;;;;;;;10034126;28;20044;-59
2022/09/16 04:52:00;;;;;;;4.25;2.40;;;;;;;;;;10043420;28;20049;-59
2022/09/16 04:56:53;;;;;;;6.35;2.15;;;;;;;;;;10041257;28;20134;-59
2022/09/16 05:01:47;;;;;;;2.67;1.92;;;;;;;;;;10045010;28;20076;-60
2022/09/16 05:06:43;;;;;;;7.50;2.42;;;;;;;;;;10044435;28;20057;-58
2022/09/16 05:11:38;;;;;;;10.65;2.65;;;;;;;;;;10038582;28;20068;-58
2022/09/16 05:16:31;;;;;;;7.60;2.72;;;;;;;;;;10039649;28;20046;-58
2022/09/16 05:21:27;;;;;;;7.93;3.20;;;;;;;;;;10033477;28;20069;-58
2022/09/16 05:26:26;;;;;;;6.60;2.45;;;;;;;;;;10029116;28;20432;-58
2022/09/16 05:31:20;;;;;;;;;;;;;;;;;;10038656;28;20066;-59
2022/09/16 05:36:17;;;;;;;5.78;2.90;;;;;;;;;;10036318;28;19925;-58
2022/09/16 05:41:10;;;;;;;6.25;2.53;;;;;;;;;;10038738;28;20473;-58
2022/09/16 05:46:05;;;;;;;7.15;2.53;;;;;;;;;;10021573;28;20056;-58
2022/09/16 05:51:02;;;;;;;4.18;2.22;;;;;;;;;;10044085;28;20064;-59
2022/09/16 05:56:04;;;;;;;9.93;2.80;;;;;;;;;;10029714;28;20042;-60
2022/09/16 06:01:18;;;;;;;5.55;2.70;;;;;;;;;;10030371;28;20046;-59
2022/09/16 06:06:20;;;;;;;7.63;2.60;;;;;;;;;;10030518;28;20053;-59
2022/09/16 06:11:15;;;;;;;6.38;2.13;;;;;;;;;;10018268;28;20042;-58
2022/09/16 06:16:09;;;;;;;4.72;2.50;;;;;;;;;;10032878;28;20052;-60
2022/09/16 06:21:08;;;;;;;7.85;2.92;;;;;;;;;;10020322;28;20056;-60
2022/09/16 06:26:11;;;;;;;6.65;2.20;;;;;;;;;;10044009;28;20050;-60
2022/09/16 06:31:14;;;;;;;5.57;2.53;;;;;;;;;;10020738;28;20056;-59
2022/09/16 06:36:15;;;;;;;7.50;2.92;;;;;;;;;;10030491;28;20042;-59
2022/09/16 06:41:10;;;;;;;7.82;2.78;;;;;;;;;;10014598;28;20060;-60
2022/09/16 06:46:14;;;;;;;3.55;2.50;;;;;;;;;;10037619;28;20065;-59
2022/09/16 06:51:16;;;;;;;5.47;2.08;;;;;;;;;;10034249;28;20046;-59
2022/09/16 06:56:13;;;;;;;5.40;2.40;;;;;;;;;;10028677;28;20067;-59
2022/09/16 07:01:14;;;;;;;17.63;4.10;;;;;;;;;;10028536;28;20050;-60
2022/09/16 07:06:09;;;;;;;6.90;2.25;;;;;;;;;;10026919;28;20449;-58
2022/09/16 07:11:05;;;;;;;4.65;2.20;;;;;;;;;;10030471;28;20064;-58
2022/09/16 07:16:00;;;;;;;8.63;3.42;;;;;;;;;;10031827;28;20489;-59
2022/09/16 07:21:09;;;;;;;6.82;2.40;;;;;;;;;;10027942;28;20050;-59
2022/09/16 07:26:09;;;;;;;6.35;1.90;;;;;;;;;;10023040;28;20049;-60
2022/09/16 07:31:06;;;;;;;4.50;2.17;;;;;;;;;;10034590;28;20458;-59
2022/09/16 07:36:01;;;;;;;9.68;3.97;;;;;;;;;;10032923;28;20041;-60
2022/09/16 07:40:55;;;;;;;6.07;2.20;;;;;;;;;;10036277;28;20045;-60
2022/09/16 07:45:58;;;;;;;5.05;2.28;;;;;;;;;;10032526;28;20403;-59
2022/09/16 07:50:59;;;;;;;8.73;1.90;;;;;;;;;;10033913;28;20077;-60
2022/09/16 07:55:53;;;;;;;10.20;2.05;;;;;;;;;;10029298;28;20535;-60
2022/09/16 08:00:48;;;;;;;7.15;2.03;;;;;;;;;;10035965;28;20064;-60
2022/09/16 08:05:44;;;;;;;5.97;1.73;;;;;;;;;;10043616;28;20411;-60
2022/09/16 08:10:41;;;;;;;4.88;2.05;;;;;;;;;;10041429;28;20134;-60
2022/09/16 08:15:35;;;;;;;8.23;2.38;;;;;;;;;;10043983;28;20560;-60
2022/09/16 08:20:29;;;;;;;8.20;1.55;;;;;;;;;;10039297;28;20064;-60
2022/09/16 08:25:23;;;;;;;7.63;2.05;;;;;;;;;;10039341;28;20404;-60
2022/09/16 08:30:17;;;;;;;8.45;2.10;;;;;;;;;;10042570;28;20413;-60
2022/09/16 08:35:13;;;;;;;11.23;2.28;;;;;;;;;;10046345;28;20049;-60
2022/09/16 08:40:07;;;;;;;5.75;2.30;;;;;;;;;;10045213;28;20441;-59
2022/09/16 08:45:25;;;;;;;13.80;2.88;;;;;;;;;;10041541;28;20045;-60
2022/09/16 08:50:33;;;;;;;3.93;1.73;;;;;;;;;;10028401;28;20052;-60
2022/09/16 08:55:38;;;;;;;6.07;1.92;;;;;;;;;;10048629;28;20053;-60
2022/09/16 09:00:32;;;;;;;5.90;2.20;;;;;;;;;;10065121;28;20503;-60
2022/09/16 09:05:39;;;;;;;9.00;2.20;;;;;;;;;;10071960;28;20555;-60
2022/09/16 09:10:43;;;;;;;7.50;2.10;;;;;;;;;;10068359;28;20073;-59
2022/09/16 09:15:39;;;;;;;5.65;2.45;;;;;;;;;;10061867;28;20042;-61
2022/09/16 09:21:08;;;;;;;12.23;2.17;;;;;;;;;;10071885;28;20049;-60
2022/09/16 09:26:41;;;;;;;7.82;2.50;;;;;;;;;;10071635;28;20137;-65
2022/09/16 09:31:54;;;;;;;4.95;2.38;;;;;;;;;;10070786;28;20053;-62
2022/09/16 09:37:24;;;;;;;7.15;1.90;;;;;;;;;;10073724;28;20064;-64
2022/09/16 09:42:40;;;;;;;11.13;2.13;;;;;;;;;;10068561;28;20051;-64
2022/09/16 09:47:56;;;;;;;7.33;1.80;;;;;;;;;;10067313;28;20041;-63
2022/09/16 09:53:04;;;;;;;6.05;2.00;;;;;;;;;;10072361;28;20053;-64
2022/09/16 09:58:10;;;;;;;5.37;1.80;;;;;;;;;;10067294;28;20053;-63
2022/09/16 10:03:06;;;;;;;9.57;2.70;;;;;;;;;;10069621;28;20068;-63
2022/09/16 10:08:11;;;;;;;5.72;1.48;;;;;;;;;;10051650;28;20136;-65
2022/09/16 10:13:11;;;;;;;10.30;1.70;;;;;;;;;;10068078;28;20049;-64
2022/09/16 10:18:53;;;;;;;13.93;3.13;;;;;;;;;;10052034;28;20061;-76
2022/09/16 10:24:27;;;;;;;7.90;1.67;;;;;;;;;;10073131;28;20091;-64
2022/09/16 10:29:22;;;;;;;8.95;2.00;;;;;;;;;;10062922;28;20064;-62
2022/09/16 10:34:15;;;;;;;2.85;1.10;;;;;;;;;;10074913;28;20124;-61
2022/09/16 10:39:21;;;;;;;5.63;1.58;;;;;;;;;;10065545;28;20496;-60
2022/09/16 10:44:27;;;;;;;5.43;1.60;;;;;;;;;;10067962;28;20049;-59
2022/09/16 10:49:22;;;;;;;;;;;;;;;;;;10050079;28;20057;-60
2022/09/16 10:54:27;;;;;;;6.97;1.88;;;;;;;;;;10067454;28;19925;-61
2022/09/16 10:59:21;;;;;;;5.80;2.13;;;;;;;;;;10071394;28;20061;-61
2022/09/16 11:04:32;;;;;;;3.10;1.40;;;;;;;;;;10075915;28;20496;-63
2022/09/16 11:10:04;;;;;;;8.25;2.20;;;;;;;;;;10063968;28;20099;-59
2022/09/16 11:15:15;;;;;;;9.73;2.03;;;;;;;;;;9992338;28;20038;-59
2022/09/16 11:20:11;;;;;;;9.48;2.47;;;;;;;;;;10061568;28;20091;-60
2022/09/16 11:26:08;;;;;;;8.70;2.13;;;;;;;;;;10061429;28;20522;-61
2022/09/16 11:31:07;;;;;;;6.67;1.90;;;;;;;;;;9990831;28;20505;-62
2022/09/16 11:36:22;;;;;;;7.05;2.25;;;;;;;;;;10046647;28;20300;-64
2022/09/16 11:41:34;;;;;;;6.05;1.77;;;;;;;;;;10059864;28;20054;-63
2022/09/16 11:46:39;;;;;;;8.45;2.10;;;;;;;;;;10043242;28;20527;-61
2022/09/16 11:51:48;;;;;;;7.55;2.47;;;;;;;;;;10063847;28;20042;-62
2022/09/16 11:57:03;;;;;;;11.00;2.55;;;;;;;;;;10060941;28;20504;-61
2022/09/16 12:02:24;;;;;;;6.50;2.90;;;;;;;;;;10036237;28;20060;-61
2022/09/16 12:07:30;;;;;;;6.55;2.03;;;;;;;;;;10050589;28;20119;-61
2022/09/16 12:12:30;;;;;;;7.25;2.10;;;;;;;;;;10055537;28;20080;-61
2022/09/16 12:17:34;;;;;;;9.05;1.65;;;;;;;;;;10026222;28;20049;-60
2022/09/16 12:23:28;;;;;;;5.38;2.15;;;;;;;;;;10036759;28;20046;-60
2022/09/16 12:28:22;;;;;;;5.35;2.50;;;;;;;;;;9985931;28;20445;-59
2022/09/16 12:33:55;;;;;;;9.00;2.53;;;;;;;;;;10024974;28;20057;-59
2022/09/16 12:39:08;;;;;;;5.25;1.85;;;;;;;;;;10058589;28;20041;-60
2022/09/16 12:44:43;;;;;;;10.02;2.20;;;;;;;;;;10050899;28;20416;-59
2022/09/16 12:49:39;;;;;;;7.38;2.28;;;;;;;;;;10064713;28;20551;-59
2022/09/16 12:54:50;;;;;;;10.57;2.60;;;;;;;;;;10068423;28;20033;-58
2022/09/16 13:00:06;;;;;;;4.93;2.38;;;;;;;;;;10070480;28;20406;-58
2022/09/16 13:05:30;;;;;;;7.20;1.70;;;;;;;;;;10074184;28;20065;-59
2022/09/16 13:10:37;;;;;;;8.50;1.85;;;;;;;;;;10067912;28;20410;-58
2022/09/16 13:15:59;;;;;;;3.05;0.68;;;;;;;;;;10073903;28;20103;-59
2022/09/16 13:21:15;;;;;;;2.63;0.57;;;;;;;;;;10071215;28;20049;-58
2022/09/16 13:26:09;;;;;;;3.15;0.90;;;;;;;;;;10080912;28;20081;-59
2022/09/16 13:31:16;;;;;;;1.50;0.65;;;;;;;;;;10034436;28;20057;-59
2022/09/16 13:36:26;;;;;;;2.63;0.70;;;;;;;;;;10030984;28;20141;-60
2022/09/16 13:41:31;;;;;;;2.67;0.80;;;;;;;;;;10028625;28;20050;-59
2022/09/16 13:46:33;;;;;;;1.95;0.93;;;;;;;;;;10037036;28;20508;-59
2022/09/16 13:51:30;;;;;;;2.15;0.90;;;;;;;;;;10038000;28;20515;-60
2022/09/16 13:56:46;;;;;;;2.75;0.75;;;;;;;;;;10033788;28;20045;-59
2022/09/16 14:02:00;;;;;;;2.55;0.85;;;;;;;;;;10032335;28;20133;-60
2022/09/16 14:07:18;;;;;;;6.68;1.42;;;;;;;;;;10042085;28;20132;-59
2022/09/16 14:12:23;;;;;;;5.38;1.02;;;;;;;;;;10036912;28;20069;-60
2022/09/16 14:17:37;;;;;;;4.40;1.00;;;;;;;;;;10019811;28;20507;-60
2022/09/16 14:22:32;;;;;;;2.28;1.08;;;;;;;;;;10025214;28;20409;-60
2022/09/16 14:27:35;;;;;;;5.55;0.95;;;;;;;;;;10028152;28;20058;-60
2022/09/16 14:32:30;;;;;;;1.00;0.90;;;;;;;;;;10060180;28;20088;-59
2022/09/16 14:37:29;;;;;;;1.33;0.93;;;;;;;;;;10052235;28;20133;-59
2022/09/16 14:42:25;;;;;;;4.38;1.10;;;;;;;;;;10069623;28;20052;-58
2022/09/16 14:47:58;;;;;;;4.20;1.05;;;;;;;;;;10065511;28;20464;-59
2022/09/16 14:52:56;;;;;;;5.45;1.30;;;;;;;;;;10068031;28;20041;-62
2022/09/16 14:57:50;;;;;;;3.10;1.02;;;;;;;;;;10066157;28;20467;-58
2022/09/16 15:03:14;;;;;;;2.40;1.33;;;;;;;;;;10068746;28;20073;-61
2022/09/16 15:08:20;;;;;;;4.97;1.33;;;;;;;;;;10043263;28;20054;-59
2022/09/16 15:13:31;;;;;;;2.38;0.95;;;;;;;;;;10036684;28;20501;-59
2022/09/16 15:18:33;;;;;;;1.63;0.90;;;;;;;;;;10053776;28;20083;-61
2022/09/16 15:23:27;;;;;;;4.43;1.38;;;;;;;;;;10051232;28;20482;-59
2022/09/16 15:28:22;;;;;;;2.00;1.02;;;;;;;;;;10061016;28;20046;-60
2022/09/16 15:33:35;;;;;;;4.13;1.50;;;;;;;;;;10064948;28;20057;-63
2022/09/16 15:38:28;;;;;;;4.40;1.15;;;;;;;;;;10062873;28;20054;-61
2022/09/16 15:43:43;;;;;;;5.07;1.05;;;;;;;;;;10039740;28;20143;-61
2022/09/16 15:48:45;;;;;;;2.22;0.82;;;;;;;;;;10056335;28;20054;-63
2022/09/16 15:53:42;;;;;;;4.55;0.95;;;;;;;;;;10063744;28;20053;-62
2022/09/16 15:58:48;;;;;;;3.95;1.33;;;;;;;;;;10053626;28;20077;-62
2022/09/16 16:04:14;;;;;;;3.28;1.02;;;;;;;;;;10055813;28;20041;-66
2022/09/16 16:09:30;;;;;;;2.33;1.10;;;;;;;;;;10057329;28;20443;-66
2022/09/16 16:14:33;;;;;;;4.97;1.75;;;;;;;;;;10067677;28;20051;-67
2022/09/16 16:19:37;;;;;;;5.28;1.10;;;;;;;;;;10066253;28;20539;-66
2022/09/16 16:24:44;;;;;;;2.27;1.30;;;;;;;;;;10079605;28;20048;-66
2022/09/16 16:29:45;;;;;;;2.53;1.10;;;;;;;;;;10086401;28;20054;-66
2022/09/16 16:34:48;;;;;;;2.38;1.25;;;;;;;;;;10072411;28;20047;-66
2022/09/16 16:39:47;;;;;;;2.22;1.10;;;;;;;;;;10087001;28;20129;-66
2022/09/16 16:44:50;;;;;;;4.40;1.27;;;;;;;;;;10079093;28;20128;-66
2022/09/16 16:49:49;;;;;;;4.88;1.35;;;;;;;;;;10088160;28;20104;-66
2022/09/16 16:54:50;;;;;;;3.88;1.23;;;;;;;;;;10084153;28;20125;-65
2022/09/16 16:59:48;;;;;;;2.97;1.25;;;;;;;;;;10087759;28;20061;-65
2022/09/16 17:04:51;;;;;;;4.28;1.38;;;;;;;;;;10089586;28;20484;-66
2022/09/16 17:09:58;;;;;;;3.83;1.30;;;;;;;;;;10096050;28;20049;-66
2022/09/16 17:15:02;;;;;;;2.28;1.27;;;;;;;;;;10085186;28;20102;-66
2022/09/16 17:20:08;;;;;;;2.45;1.45;;;;;;;;;;10087495;28;20545;-66
2022/09/16 17:25:05;;;;;;;3.88;1.40;;;;;;;;;;10083751;28;20038;-66
2022/09/16 17:30:14;;;;;;;3.85;1.20;;;;;;;;;;10086068;28;20068;-66
2022/09/16 17:35:10;;;;;;;6.50;2.08;;;;;;;;;;10071128;28;20048;-65
2022/09/16 17:40:19;;;;;;;4.55;1.73;;;;;;;;;;10083215;28;20054;-66
2022/09/16 17:45:22;;;;;;;6.23;1.40;;;;;;;;;;10082572;28;20460;-66
2022/09/16 17:50:23;;;;;;;2.05;1.13;;;;;;;;;;10071171;28;20049;-66
2022/09/16 17:55:22;;;;;;;4.97;1.20;;;;;;;;;;10059287;28;20049;-64
2022/09/16 18:00:23;;;;;;;3.58;1.23;;;;;;;;;;10065130;28;20053;-64
2022/09/16 18:05:19;;;;;;;3.17;1.27;;;;;;;;;;10067274;28;20045;-64
2022/09/16 18:10:23;;;;;;;4.93;1.40;;;;;;;;;;10069016;28;20522;-64
2022/09/16 18:15:20;;;;;;;2.92;1.27;;;;;;;;;;10063539;28;20045;-65
2022/09/16 18:20:24;;;;;;;5.25;1.75;;;;;;;;;;10068366;28;20114;-63
2022/09/16 18:25:26;;;;;;;4.70;1.17;;;;;;;;;;10066568;28;20515;-61
2022/09/16 18:30:28;;;;;;;2.42;1.10;;;;;;;;;;10075104;28;20080;-62
2022/09/16 18:35:30;;;;;;;6.63;1.90;;;;;;;;;;10067720;28;20501;-62
2022/09/16 18:40:36;;;;;;;5.30;1.40;;;;;;;;;;10070587;28;20046;-62
2022/09/16 18:45:37;;;;;;;4.55;1.58;;;;;;;;;;10068410;28;20053;-62
2022/09/16 18:50:38;;;;;;;5.38;1.60;;;;;;;;;;10068630;28;20045;-63
2022/09/16 18:55:39;;;;;;;9.52;1.73;;;;;;;;;;10065183;28;20043;-62
2022/09/16 19:00:39;;;;;;;2.15;1.20;;;;;;;;;;10060831;28;20068;-63
2022/09/16 19:05:39;;;;;;;5.82;1.60;;;;;;;;;;10060147;28;20457;-63
2022/09/16 19:10:35;;;;;;;7.43;1.40;;;;;;;;;;10041079;28;20051;-62
2022/09/16 19:15:35;;;;;;;2.60;1.73;;;;;;;;;;10065133;28;20057;-62
2022/09/16 19:20:41;;;;;;;4.22;1.45;;;;;;;;;;10065579;28;20322;-62
2022/09/16 19:25:42;;;;;;;6.32;1.80;;;;;;;;;;10065586;28;20057;-61
2022/09/16 19:30:41;;;;;;;3.55;1.80;;;;;;;;;;10064370;28;20123;-61
2022/09/16 19:35:42;;;;;;;5.50;1.65;;;;;;;;;;10065979;28;20048;-62
2022/09/16 19:40:42;;;;;;;7.80;1.70;;;;;;;;;;10067833;28;20042;-62
2022/09/16 19:45:44;;;;;;;4.97;1.55;;;;;;;;;;10072903;28;20041;-61
2022/09/16 19:50:49;;;;;;;3.08;1.40;;;;;;;;;;10065864;28;20462;-61
2022/09/16 19:55:50;;;;;;;2.40;1.30;;;;;;;;;;10062446;28;20049;-61
2022/09/16 20:00:50;;;;;;;3.33;1.42;;;;;;;;;;10046062;28;20393;-61
2022/09/16 20:06:04;;;;;;;4.38;1.85;;;;;;;;;;10070002;28;20484;-68
2022/09/16 20:11:17;;;;;;;3.90;1.85;;;;;;;;;;10069271;28;20132;-69
2022/09/16 20:16:37;;;;;;;4.72;1.98;;;;;;;;;;10068334;28;20037;-66
2022/09/16 20:21:37;;;;;;;5.75;1.88;;;;;;;;;;10062535;28;20107;-66
2022/09/16 20:26:33;;;;;;;5.53;2.35;;;;;;;;;;10067006;28;20041;-66
2022/09/16 20:31:30;;;;;;;6.20;1.98;;;;;;;;;;10064444;28;20045;-67
2022/09/16 20:36:26;;;;;;;13.23;1.73;;;;;;;;;;10065968;28;20041;-66
2022/09/16 20:41:26;;;;;;;3.20;1.67;;;;;;;;;;10064489;28;20065;-66
2022/09/16 20:46:21;;;;;;;4.32;2.15;;;;;;;;;;10074278;28;20083;-69
2022/09/16 20:51:20;;;;;;;9.10;1.80;;;;;;;;;;10067060;28;20103;-64
2022/09/16 20:56:19;;;;;;;5.60;1.92;;;;;;;;;;10070575;28;20120;-66
2022/09/16 21:01:17;;;;;;;5.53;1.63;;;;;;;;;;10045768;28;20057;-67
2022/09/16 21:06:15;;;;;;;5.00;1.83;;;;;;;;;;10064814;28;20099;-68
2022/09/16 21:11:11;;;;;;;;;;;;;;;;;;10057731;28;20049;-68
2022/09/16 21:16:07;;;;;;;3.00;1.77;;;;;;;;;;10071394;28;19925;-69
2022/09/16 21:21:07;;;;;;;5.45;1.85;;;;;;;;;;10071557;28;20095;-68
2022/09/16 21:26:23;;;;;;;5.28;1.80;;;;;;;;;;10072549;28;20088;-70
2022/09/16 21:31:19;;;;;;;7.32;2.17;;;;;;;;;;10067094;28;20054;-70
2022/09/16 21:36:28;;;;;;;7.30;2.20;;;;;;;;;;10070380;28;20095;-70
2022/09/16 21:41:32;;;;;;;5.35;2.72;;;;;;;;;;10071673;28;20052;-71
2022/09/16 21:46:32;;;;;;;7.28;2.85;;;;;;;;;;10073084;28;20050;-77
2022/09/16 21:51:33;;;;;;;5.25;2.83;;;;;;;;;;10084427;28;20064;-77
2022/09/16 21:56:30;;;;;;;5.97;2.25;;;;;;;;;;10072019;28;20042;-75
2022/09/16 22:01:32;;;;;;;7.72;2.15;;;;;;;;;;10070437;28;20128;-74
2022/09/16 22:06:36;;;;;;;9.63;2.00;;;;;;;;;;10074656;28;20049;-69
2022/09/16 22:11:39;;;;;;;6.53;2.30;;;;;;;;;;10060800;28;20075;-68
2022/09/16 22:16:42;;;;;;;5.35;2.13;;;;;;;;;;10049621;28;20045;-68
2022/09/16 22:21:49;;;;;;;10.02;2.63;;;;;;;;;;10067430;28;20099;-69
2022/09/16 22:26:47;;;;;;;9.25;3.33;;;;;;;;;;10062630;28;20112;-68
2022/09/16 22:31:47;;;;;;;7.57;3.33;;;;;;;;;;10033793;28;20123;-68
2022/09/16 22:36:50;;;;;;;14.80;4.93;;;;;;;;;;10020240;28;20054;-68
2022/09/16 22:41:51;;;;;;;14.90;3.38;;;;;;;;;;10037177;28;20046;-68
2022/09/16 22:46:57;;;;;;;9.60;3.72;;;;;;;;;;10028163;28;20037;-71
2022/09/16 22:51:55;;;;;;;13.90;3.88;;;;;;;;;;10032416;28;20061;-71
2022/09/16 22:56:55;;;;;;;16.42;6.40;;;;;;;;;;10037138;28;20045;-71
2022/09/16 23:01:57;;;;;;;13.98;4.07;;;;;;;;;;10042821;28;20054;-71
2022/09/16 23:06:55;;;;;;;11.90;3.30;;;;;;;;;;10028764;28;20049;-71
2022/09/16 23:11:48;;;;;;;4.68;2.05;;;;;;;;;;10041556;28;20057;-70
2022/09/16 23:16:41;;;;;;;7.15;2.28;;;;;;;;;;10032103;28;20050;-71
2022/09/16 23:21:36;;;;;;;6.03;3.10;;;;;;;;;;10027425;28;20487;-70
2022/09/16 23:26:35;;;;;;;7.90;2.67;;;;;;;;;;10029893;28;20057;-70
2022/09/16 23:31:31;;;;;;;4.72;2.10;;;;;;;;;;10077931;28;20065;-70
2022/09/16 23:36:26;;;;;;;5.32;3.10;;;;;;;;;;10065789;28;20049;-70
2022/09/16 23:41:23;;;;;;;6.95;1.98;;;;;;;;;;10067941;28;20056;-71
2022/09/16 23:46:18;;;;;;;4.20;1.85;;;;;;;;;;10080289;28;20049;-69
2022/09/16 23:51:13;;;;;;;4.68;2.47;;;;;;;;;;10082330;28;20408;-68
2022/09/16 23:56:09;;;;;;;4.03;2.25;;;;;;;;;;10079656;28;21123;-68
